Time;durP1;ratioP1;P1;durP2;ratioP2;P2;SDS_P1;SDS_P2;PMS_P1;PMS_P2;Temp;Humidity;BMP_temperature;BMP_pressure;BME280_temperature;BME280_humidity;BME280_pressure;Samples;Min_cycle;Max_cycle;Signal;HPM_P1;HPM_P2
2021/08/28 00:00:01;;;;;;;8.00;4.60;;;;;;;12.67;82.37;96176.22;4954664;29;20534;-73
2021/08/28 00:02:27;;;;;;;9.13;5.88;;;;;;;12.61;83.67;96176.78;4952272;29;20506;-73
2021/08/28 00:04:53;;;;;;;10.77;5.55;;;;;;;12.58;84.50;96177.44;4954603;29;20051;-73
2021/08/28 00:07:21;;;;;;;7.93;5.68;;;;;;;12.47;84.58;96168.84;4954188;29;20503;-73
2021/08/28 00:09:48;;;;;;;11.27;6.15;;;;;;;12.40;85.15;96176.81;4953551;28;20514;-73
2021/08/28 00:12:14;;;;;;;7.97;5.57;;;;;;;12.39;85.98;96172.47;4953938;29;20051;-73
2021/08/28 00:14:41;;;;;;;8.18;5.72;;;;;;;12.37;86.59;96177.44;4954478;29;20062;-75
2021/08/28 00:17:08;;;;;;;8.60;5.80;;;;;;;12.34;86.56;96178.94;4954061;29;20051;-74
2021/08/28 00:19:34;;;;;;;9.25;5.93;;;;;;;12.34;86.98;96172.69;4954358;29;20055;-74
2021/08/28 00:22:01;;;;;;;13.43;6.15;;;;;;;12.34;87.18;96178.13;4954476;29;20051;-73
2021/08/28 00:24:29;;;;;;;8.63;6.13;;;;;;;12.34;87.45;96172.69;4954356;29;20047;-73
2021/08/28 00:26:55;;;;;;;9.75;5.85;;;;;;;12.37;87.81;96172.00;4954395;29;20055;-73
2021/08/28 00:29:22;;;;;;;10.90;6.93;;;;;;;12.43;87.30;96176.16;4953846;29;20058;-74
2021/08/28 00:31:48;;;;;;;9.90;6.65;;;;;;;12.39;87.25;96169.75;4954439;29;20044;-73
2021/08/28 00:34:14;;;;;;;9.13;6.47;;;;;;;12.38;87.06;96168.16;4953210;29;20051;-73
2021/08/28 00:36:41;;;;;;;10.90;6.50;;;;;;;12.39;87.38;96165.06;4954128;29;20051;-74
2021/08/28 00:39:07;;;;;;;10.40;6.93;;;;;;;12.41;87.63;96159.28;4953999;29;20055;-73
2021/08/28 00:41:35;;;;;;;9.40;6.00;;;;;;;12.41;87.75;96160.06;4954324;29;20067;-73
2021/08/28 00:44:02;;;;;;;11.65;6.80;;;;;;;12.39;87.95;96158.81;4953530;29;20059;-73
2021/08/28 00:46:28;;;;;;;11.02;7.63;;;;;;;12.37;88.10;96166.53;4954110;29;20055;-75
2021/08/28 00:48:55;;;;;;;12.32;6.88;;;;;;;12.34;87.90;96161.75;4953861;29;20059;-74
2021/08/28 00:51:21;;;;;;;12.90;8.07;;;;;;;12.33;88.27;96162.91;4953496;29;20051;-75
2021/08/28 00:53:48;;;;;;;12.10;6.95;;;;;;;12.34;88.15;96159.03;4953876;29;20055;-73
2021/08/28 00:56:15;;;;;;;13.73;7.07;;;;;;;12.30;88.26;96160.81;4953244;29;20070;-75
2021/08/28 00:58:43;;;;;;;13.68;7.38;;;;;;;12.33;88.62;96151.97;4953544;29;20502;-75
2021/08/28 01:01:12;;;;;;;13.80;8.18;;;;;;;12.36;88.85;96157.53;4953252;29;20501;-76
2021/08/28 01:03:42;;;;;;;12.10;8.02;;;;;;;12.38;88.95;96163.50;4953179;29;20066;-75
2021/08/28 01:06:15;;;;;;;15.02;7.30;;;;;;;12.39;88.67;96159.63;4953144;29;20537;-75
2021/08/28 01:08:45;;;;;;;11.57;7.75;;;;;;;12.32;88.64;96169.47;4953563;29;20051;-75
2021/08/28 01:11:19;;;;;;;13.55;8.77;;;;;;;12.33;89.44;96165.63;4952971;29;20058;-75
2021/08/28 01:13:51;;;;;;;17.27;9.07;;;;;;;12.32;89.72;96164.81;4953223;29;20047;-75
2021/08/28 01:16:21;;;;;;;14.18;8.57;;;;;;;12.29;90.24;96160.03;4953146;29;20054;-75
2021/08/28 01:18:48;;;;;;;14.30;8.40;;;;;;;12.32;90.44;96161.28;4953569;29;20051;-75
2021/08/28 01:21:23;;;;;;;13.15;8.27;;;;;;;12.33;90.21;96154.69;4952627;28;20059;-75
2021/08/28 01:23:50;;;;;;;14.52;8.45;;;;;;;12.35;90.43;96157.88;4953359;29;20475;-75
2021/08/28 01:26:20;;;;;;;15.00;8.52;;;;;;;12.32;90.06;96158.53;4952717;29;20058;-75
2021/08/28 01:28:54;;;;;;;13.05;8.63;;;;;;;12.25;90.63;96159.88;4953524;29;20043;-76
2021/08/28 01:31:22;;;;;;;17.80;8.70;;;;;;;12.20;90.78;96164.75;4952907;29;20058;-74
2021/08/28 01:33:50;;;;;;;12.05;8.50;;;;;;;12.20;90.99;96168.28;4952794;29;20047;-76
2021/08/28 01:36:18;;;;;;;14.88;9.10;;;;;;;12.19;91.26;96165.88;4952786;29;20058;-73
2021/08/28 01:38:46;;;;;;;14.38;9.30;;;;;;;12.25;91.94;96159.88;4953049;29;20078;-73
2021/08/28 01:41:12;;;;;;;13.88;9.38;;;;;;;12.27;91.88;96163.09;4952814;29;20051;-72
2021/08/28 01:43:40;;;;;;;16.27;9.15;;;;;;;12.27;91.29;96163.09;4952789;29;20506;-72
2021/08/28 01:46:08;;;;;;;15.23;9.45;;;;;;;12.26;91.46;96158.75;4952665;29;20051;-73
2021/08/28 01:48:37;;;;;;;14.18;8.93;;;;;;;12.23;91.29;96166.81;4953008;29;20051;-75
2021/08/28 01:51:04;;;;;;;15.57;8.73;;;;;;;12.18;91.71;96173.28;4952662;29;20047;-75
2021/08/28 01:53:30;;;;;;;15.35;9.57;;;;;;;12.16;91.96;96161.91;4952852;29;20051;-75
2021/08/28 01:55:57;;;;;;;14.68;9.35;;;;;;;12.14;92.33;96169.59;4952995;29;20051;-75
2021/08/28 01:58:23;;;;;;;17.75;9.75;;;;;;;12.08;92.20;96168.19;4952339;29;20051;-74
2021/08/28 02:00:50;;;;;;;16.67;9.23;;;;;;;12.11;92.58;96164.00;4953239;29;20050;-75
2021/08/28 02:03:16;;;;;;;14.70;9.20;;;;;;;12.12;92.80;96160.97;4952106;29;20047;-74
2021/08/28 02:05:50;;;;;;;19.33;10.02;;;;;;;12.12;92.63;96171.88;4952997;29;20132;-75
2021/08/28 02:08:26;;;;;;;16.52;9.60;;;;;;;12.08;92.65;96170.94;4952448;29;20132;-75
2021/08/28 02:10:58;;;;;;;17.17;9.50;;;;;;;12.09;93.32;96169.00;4952906;29;20059;-76
2021/08/28 02:13:30;;;;;;;13.97;9.33;;;;;;;12.03;93.29;96168.41;4952629;29;20055;-75
2021/08/28 02:16:05;;;;;;;15.20;9.32;;;;;;;12.04;93.72;96161.81;4952999;29;20050;-75
2021/08/28 02:18:39;;;;;;;17.42;9.18;;;;;;;12.08;94.01;96161.94;4952711;29;20043;-75
2021/08/28 02:21:09;;;;;;;15.27;9.27;;;;;;;12.11;94.10;96169.47;4952496;29;20055;-75
2021/08/28 02:23:40;;;;;;;16.88;10.43;;;;;;;12.16;93.82;96166.53;4952826;29;20178;-75
2021/08/28 02:26:10;;;;;;;18.15;10.00;;;;;;;12.17;93.56;96163.50;4952755;29;20051;-75
2021/08/28 02:28:48;;;;;;;15.32;9.27;;;;;;;12.13;92.99;96159.81;4952776;29;20051;-75
2021/08/28 02:31:18;;;;;;;14.30;9.07;;;;;;;12.16;93.42;96156.44;4952530;29;20472;-74
2021/08/28 02:33:45;;;;;;;15.05;9.35;;;;;;;12.18;93.70;96156.09;4954597;29;20053;-75
2021/08/28 02:36:14;;;;;;;15.48;10.18;;;;;;;12.21;93.43;96158.16;4955568;29;20051;-76
2021/08/28 02:38:43;;;;;;;16.95;9.45;;;;;;;12.23;92.97;96151.22;4955943;29;20051;-74
2021/08/28 02:41:09;;;;;;;13.82;8.77;;;;;;;12.23;92.86;96153.16;4956042;29;20066;-75
2021/08/28 02:43:36;;;;;;;13.45;8.23;;;;;;;12.22;93.32;96151.56;4956088;29;20055;-75
2021/08/28 02:46:04;;;;;;;15.82;8.45;;;;;;;12.21;93.17;96158.94;4955870;29;20054;-74
2021/08/28 02:48:34;;;;;;;15.70;8.30;;;;;;;12.22;93.44;96149.63;4956152;29;20051;-75
2021/08/28 02:51:02;;;;;;;15.90;8.38;;;;;;;12.21;93.44;96148.03;4955861;29;20055;-75
2021/08/28 02:53:31;;;;;;;12.00;8.07;;;;;;;12.22;93.22;96144.19;4955861;29;20047;-75
2021/08/28 02:55:59;;;;;;;15.35;8.40;;;;;;;12.23;93.28;96139.53;4956038;29;20075;-75
2021/08/28 02:58:26;;;;;;;14.27;8.00;;;;;;;12.24;93.26;96135.66;4955072;29;20052;-75
2021/08/28 03:00:53;;;;;;;13.23;8.35;;;;;;;12.28;93.44;96140.13;4956056;29;20055;-75
2021/08/28 03:03:20;;;;;;;13.55;8.00;;;;;;;12.31;92.80;96129.66;4954608;29;20043;-75
2021/08/28 03:05:50;;;;;;;13.65;7.85;;;;;;;12.25;92.30;96131.78;4955807;29;20047;-75
2021/08/28 03:08:18;;;;;;;12.05;8.15;;;;;;;12.25;92.57;96138.03;4955265;29;20051;-76
2021/08/28 03:10:49;;;;;;;13.73;8.13;;;;;;;12.22;92.68;96146.91;4955801;29;20055;-75
2021/08/28 03:13:15;;;;;;;12.85;7.93;;;;;;;12.19;92.80;96142.09;4955340;29;20051;-75
2021/08/28 03:15:43;;;;;;;15.63;8.40;;;;;;;12.21;92.68;96147.22;4955818;29;20513;-75
2021/08/28 03:18:11;;;;;;;13.52;9.02;;;;;;;12.20;92.88;96140.97;4955114;29;20075;-75
2021/08/28 03:20:38;;;;;;;12.15;7.97;;;;;;;12.23;92.79;96140.31;4955484;29;20051;-75
2021/08/28 03:23:05;;;;;;;15.27;8.70;;;;;;;12.24;92.75;96136.44;4954858;29;20051;-74
2021/08/28 03:25:32;;;;;;;17.88;9.10;;;;;;;12.28;92.90;96137.38;4955600;29;20055;-76
2021/08/28 03:28:00;;;;;;;14.02;8.27;;;;;;;12.28;92.70;96131.91;4955305;29;20055;-75
2021/08/28 03:30:28;;;;;;;17.02;8.93;;;;;;;12.29;92.74;96132.72;4955082;29;20422;-75
2021/08/28 03:32:56;;;;;;;15.15;7.80;;;;;;;12.30;92.45;96128.06;4954872;29;20043;-76
2021/08/28 03:35:24;;;;;;;13.45;7.82;;;;;;;12.33;92.55;96133.66;4954839;29;20043;-75
2021/08/28 03:37:51;;;;;;;17.00;9.35;;;;;;;12.32;92.52;96125.78;4954956;29;20650;-74
2021/08/28 03:40:19;;;;;;;13.93;8.35;;;;;;;12.28;92.19;96126.47;4954569;29;20062;-74
2021/08/28 03:42:45;;;;;;;16.00;8.73;;;;;;;12.30;92.32;96128.06;4955219;29;20051;-75
2021/08/28 03:45:13;;;;;;;16.67;8.50;;;;;;;12.32;92.30;96131.25;4954136;28;20424;-74
2021/08/28 03:47:43;;;;;;;16.52;8.60;;;;;;;12.27;92.31;96127.59;4955249;29;20047;-75
2021/08/28 03:50:12;;;;;;;14.02;8.55;;;;;;;12.27;92.70;96127.59;4954440;29;20051;-75
2021/08/28 03:52:38;;;;;;;16.15;9.30;;;;;;;12.27;93.05;96130.34;4955018;29;20055;-75
2021/08/28 03:55:05;;;;;;;19.73;9.77;;;;;;;12.26;92.96;96125.97;4954497;29;20051;-75
2021/08/28 03:57:32;;;;;;;14.50;8.40;;;;;;;12.15;92.61;96132.97;4954872;29;20051;-75
2021/08/28 03:59:58;;;;;;;15.43;9.00;;;;;;;12.11;93.21;96132.06;4954863;29;20051;-75
2021/08/28 04:02:26;;;;;;;15.13;8.48;;;;;;;12.09;93.27;96125.34;4953929;29;20054;-75
2021/08/28 04:04:52;;;;;;;16.80;9.68;;;;;;;12.07;93.25;96128.41;4954617;29;20058;-75
2021/08/28 04:07:19;;;;;;;17.35;10.10;;;;;;;12.12;93.61;96122.75;4954097;29;20058;-75
2021/08/28 04:09:45;;;;;;;17.38;9.68;;;;;;;12.15;93.54;96122.06;4954573;29;20525;-73
2021/08/28 04:12:12;;;;;;;15.43;8.90;;;;;;;12.19;93.55;96128.47;4954124;29;20051;-73
2021/08/28 04:14:38;;;;;;;15.68;9.20;;;;;;;12.18;92.85;96131.53;4954786;29;20055;-73
2021/08/28 04:17:05;;;;;;;14.05;9.18;;;;;;;12.20;93.02;96131.97;4954038;29;20055;-77
2021/08/28 04:19:33;;;;;;;14.02;9.00;;;;;;;12.14;93.28;96131.38;4954353;29;20047;-75
2021/08/28 04:21:59;;;;;;;15.73;9.85;;;;;;;12.15;93.54;96122.06;4954327;29;20502;-74
2021/08/28 04:24:26;;;;;;;15.55;9.40;;;;;;;12.14;93.40;96131.38;4953740;29;20059;-74
2021/08/28 04:26:52;;;;;;;18.30;9.63;;;;;;;12.11;93.50;96132.06;4954560;29;20047;-73
2021/08/28 04:29:19;;;;;;;16.05;9.77;;;;;;;12.15;93.87;96127.53;4953917;29;20051;-74
2021/08/28 04:31:45;;;;;;;16.15;9.00;;;;;;;12.14;93.82;96133.31;4954239;29;20058;-75
2021/08/28 04:34:12;;;;;;;15.43;9.48;;;;;;;12.11;93.65;96142.16;4953497;29;20066;-73
2021/08/28 04:36:41;;;;;;;17.00;9.95;;;;;;;12.15;94.31;96132.19;4953842;29;20058;-74
2021/08/28 04:39:07;;;;;;;17.13;10.13;;;;;;;12.21;94.39;96131.63;4953436;29;20130;-75
2021/08/28 04:41:34;;;;;;;20.15;11.57;;;;;;;12.26;94.17;96134.16;4953950;29;20419;-75
2021/08/28 04:44:00;;;;;;;17.88;10.73;;;;;;;12.29;93.95;96132.72;4953963;29;20043;-74
2021/08/28 04:46:27;;;;;;;17.75;10.63;;;;;;;12.32;93.92;96142.97;4953736;29;20051;-73
2021/08/28 04:48:54;;;;;;;16.75;9.70;;;;;;;12.34;93.47;96137.19;4953961;29;20054;-73
2021/08/28 04:51:20;;;;;;;17.85;10.07;;;;;;;12.31;93.20;96146.03;4953657;29;20062;-72
2021/08/28 04:53:48;;;;;;;18.13;10.50;;;;;;;12.30;92.88;96141.69;4953888;29;20438;-75
2021/08/28 04:56:14;;;;;;;13.95;9.40;;;;;;;12.26;92.67;96139.63;4952870;28;20082;-72
2021/08/28 04:58:41;;;;;;;16.48;8.50;;;;;;;12.22;92.54;96149.63;4953752;29;20051;-73
2021/08/28 05:01:07;;;;;;;15.70;9.60;;;;;;;12.20;92.72;96146.44;4952939;29;20073;-73
2021/08/28 05:03:34;;;;;;;15.88;8.90;;;;;;;12.23;93.04;96153.97;4952879;29;20458;-73
2021/08/28 05:06:00;;;;;;;14.98;8.88;;;;;;;12.26;92.83;96149.75;4952145;29;20098;-72
2021/08/28 05:08:27;;;;;;;14.25;9.10;;;;;;;12.33;92.97;96151.97;4952370;29;20047;-72
2021/08/28 05:10:54;;;;;;;12.63;8.27;;;;;;;12.32;92.31;96164.00;4953641;29;20055;-75
2021/08/28 05:13:21;;;;;;;14.27;8.98;;;;;;;12.36;92.30;96154.00;4953235;29;20243;-75
2021/08/28 05:15:47;;;;;;;14.55;8.43;;;;;;;12.33;92.27;96149.25;4953520;29;20047;-75
2021/08/28 05:18:14;;;;;;;16.42;9.27;;;;;;;12.25;92.49;96157.16;4953104;29;20554;-72
2021/08/28 05:20:40;;;;;;;21.63;10.68;;;;;;;12.25;92.74;96159.88;4953574;29;20047;-74
2021/08/28 05:23:07;;;;;;;18.88;10.57;;;;;;;12.34;92.83;96162.56;4952994;29;20128;-72
2021/08/28 05:25:33;;;;;;;15.70;9.40;;;;;;;12.43;92.58;96165.22;4953332;29;20418;-73
2021/08/28 05:28:01;;;;;;;15.80;10.05;;;;;;;12.52;92.47;96163.19;4953407;29;20059;-73
2021/08/28 05:30:28;;;;;;;17.15;8.85;;;;;;;12.59;92.45;96163.47;4953288;29;20070;-72
2021/08/28 05:32:54;;;;;;;16.08;9.02;;;;;;;12.58;92.11;96167.34;4953053;29;20046;-73
2021/08/28 05:35:21;;;;;;;16.23;8.93;;;;;;;12.63;92.67;96167.09;4952736;29;20051;-73
2021/08/28 05:37:47;;;;;;;15.55;9.77;;;;;;;12.69;92.44;96165.78;4953342;29;20415;-73
2021/08/28 05:40:18;;;;;;;17.33;9.55;;;;;;;12.71;92.52;96166.25;4952725;29;20418;-73
2021/08/28 05:42:45;;;;;;;15.35;9.68;;;;;;;12.77;92.55;96170.34;4953173;29;20142;-73
2021/08/28 05:45:13;;;;;;;14.68;9.40;;;;;;;12.80;91.60;96172.44;4952787;29;20513;-73
2021/08/28 05:47:39;;;;;;;16.63;9.15;;;;;;;12.81;91.48;96184.16;4953421;29;20506;-73
2021/08/28 05:50:07;;;;;;;14.55;8.85;;;;;;;12.77;90.87;96175.81;4952577;29;20529;-73
2021/08/28 05:52:34;;;;;;;16.35;9.75;;;;;;;12.80;91.05;96180.63;4953160;29;20516;-73
2021/08/28 05:55:00;;;;;;;13.48;8.98;;;;;;;12.79;91.15;96186.44;4953324;29;20050;-74
2021/08/28 05:57:26;;;;;;;16.17;9.82;;;;;;;12.76;91.06;96185.16;4952488;29;20054;-73
2021/08/28 05:59:53;;;;;;;19.00;10.30;;;;;;;12.72;91.48;96184.22;4953001;29;20051;-72
2021/08/28 06:02:21;;;;;;;17.83;10.07;;;;;;;12.76;91.77;96178.88;4951965;29;20051;-74
2021/08/28 06:04:47;;;;;;;19.50;11.15;;;;;;;12.86;91.91;96177.69;4952910;29;20387;-75
2021/08/28 06:07:14;;;;;;;16.13;10.48;;;;;;;12.90;91.62;96178.59;4954486;28;20051;-73
2021/08/28 06:09:40;;;;;;;16.70;9.95;;;;;;;12.86;91.38;96183.16;4956891;29;20051;-73
2021/08/28 06:12:07;;;;;;;18.23;10.38;;;;;;;12.87;91.76;96176.53;4956297;29;20669;-72
2021/08/28 06:14:33;;;;;;;15.23;9.70;;;;;;;12.90;91.94;96170.41;4957032;29;20398;-72
2021/08/28 06:17:00;;;;;;;16.88;9.57;;;;;;;12.99;91.65;96171.91;4956903;29;20070;-72
2021/08/28 06:19:28;;;;;;;16.33;8.88;;;;;;;13.06;91.05;96165.91;4956274;29;20062;-75
2021/08/28 06:21:54;;;;;;;15.35;10.13;;;;;;;13.15;90.97;96166.56;4956875;29;20044;-73
2021/08/28 06:24:21;;;;;;;13.38;8.70;;;;;;;13.24;90.31;96167.31;4956004;29;20043;-72
2021/08/28 06:26:47;;;;;;;11.07;7.72;;;;;;;13.29;89.73;96169.81;4956580;29;20043;-72
2021/08/28 06:29:14;;;;;;;10.68;7.47;;;;;;;13.35;89.71;96166.88;4956221;29;20044;-72
2021/08/28 06:31:40;;;;;;;16.27;8.25;;;;;;;13.31;89.02;96167.56;4956547;29;20055;-72
2021/08/28 06:34:07;;;;;;;10.30;7.70;;;;;;;13.41;88.90;96165.50;4955546;29;20039;-73
2021/08/28 06:36:34;;;;;;;9.20;6.18;;;;;;;13.47;88.55;96164.97;4956579;29;20050;-73
2021/08/28 06:39:01;;;;;;;7.45;5.88;;;;;;;13.49;87.91;96161.88;4956424;29;20051;-73
2021/08/28 06:41:27;;;;;;;8.90;6.45;;;;;;;13.50;86.92;96168.94;4955995;29;20398;-73
2021/08/28 06:43:54;;;;;;;8.98;5.97;;;;;;;13.61;87.09;96161.06;4956342;29;20074;-73
2021/08/28 06:46:20;;;;;;;6.85;5.32;;;;;;;13.68;87.19;96164.84;4955507;29;20051;-73
2021/08/28 06:48:47;;;;;;;7.18;5.50;;;;;;;13.67;87.19;96163.25;4956248;29;20058;-72
2021/08/28 06:51:13;;;;;;;8.18;5.72;;;;;;;13.72;87.22;96160.28;4955958;29;20138;-73
2021/08/28 06:53:41;;;;;;;7.40;5.00;;;;;;;13.74;86.54;96166.22;4955815;29;20051;-75
2021/08/28 06:56:07;;;;;;;8.57;5.18;;;;;;;13.79;86.74;96168.72;4955484;29;20051;-72
2021/08/28 06:58:34;;;;;;;7.60;5.25;;;;;;;13.88;86.80;96167.78;4955808;29;20541;-72
2021/08/28 07:01:00;;;;;;;7.55;5.47;;;;;;;13.83;85.42;96177.84;4956129;29;20102;-75
2021/08/28 07:03:28;;;;;;;7.72;5.57;;;;;;;13.79;84.43;96176.94;4955322;29;20124;-73
2021/08/28 07:05:54;;;;;;;7.57;5.75;;;;;;;13.86;85.43;96178.28;4955870;29;20047;-73
2021/08/28 07:08:21;;;;;;;7.95;5.68;;;;;;;13.93;85.83;96182.03;4955325;29;20054;-72
2021/08/28 07:10:49;;;;;;;6.93;5.50;;;;;;;14.01;85.71;96183.88;4955866;29;20055;-73
2021/08/28 07:13:15;;;;;;;7.85;5.28;;;;;;;14.09;85.56;96173.91;4955006;29;20047;-72
2021/08/28 07:15:42;;;;;;;7.10;4.88;;;;;;;14.19;85.32;96178.94;4955366;29;20059;-73
2021/08/28 07:18:09;;;;;;;5.65;4.25;;;;;;;14.30;85.26;96180.06;4954560;28;20054;-73
2021/08/28 07:20:36;;;;;;;7.00;4.57;;;;;;;14.35;84.25;96177.09;4955332;29;20498;-72
2021/08/28 07:23:02;;;;;;;5.47;4.00;;;;;;;14.41;83.53;96163.13;4955013;29;20514;-74
2021/08/28 07:25:29;;;;;;;5.30;3.97;;;;;;;14.45;82.58;96174.97;4955098;29;20062;-74
2021/08/28 07:27:57;;;;;;;4.65;3.85;;;;;;;14.44;82.17;96176.13;4955257;29;20054;-74
2021/08/28 07:30:23;;;;;;;5.53;4.00;;;;;;;14.27;81.36;96169.78;4954541;29;20495;-74
2021/08/28 07:32:50;;;;;;;7.38;5.15;;;;;;;14.21;82.11;96171.19;4954595;29;20047;-74
2021/08/28 07:35:16;;;;;;;8.35;4.65;;;;;;;14.13;82.14;96177.56;4954876;29;20121;-74
2021/08/28 07:37:43;;;;;;;4.32;3.38;;;;;;;14.06;82.26;96169.94;4955526;29;20051;-74
2021/08/28 07:40:10;;;;;;;4.70;3.75;;;;;;;14.04;81.43;96168.69;4954716;29;20051;-74
2021/08/28 07:42:36;;;;;;;7.68;3.95;;;;;;;14.08;82.46;96178.59;4955288;29;20047;-74
2021/08/28 07:45:05;;;;;;;5.53;4.43;;;;;;;14.34;83.90;96172.72;4954743;29;20051;-74
2021/08/28 07:47:32;;;;;;;4.95;3.90;;;;;;;14.97;82.85;96174.13;4954955;29;20047;-74
2021/08/28 07:49:58;;;;;;;6.60;3.45;;;;;;;15.22;77.06;96172.84;4955075;29;20055;-74
2021/08/28 07:52:25;;;;;;;5.53;3.15;;;;;;;15.14;77.36;96171.09;4954651;29;20413;-74
2021/08/28 07:54:51;;;;;;;3.35;2.40;;;;;;;15.11;77.64;96174.53;4955012;29;20058;-74
2021/08/28 07:57:18;;;;;;;4.90;2.85;;;;;;;15.11;77.45;96169.81;4954326;29;20509;-74
2021/08/28 07:59:44;;;;;;;3.40;2.70;;;;;;;15.10;77.93;96175.66;4955132;29;20047;-74
2021/08/28 08:02:12;;;;;;;4.72;3.13;;;;;;;15.05;78.55;96175.94;4954315;29;20055;-74
2021/08/28 08:04:38;;;;;;;4.35;2.50;;;;;;;14.91;76.60;96170.06;4954366;29;20043;-74
2021/08/28 08:07:05;;;;;;;5.20;2.50;;;;;;;14.94;77.50;96174.84;4952721;29;20658;-74
2021/08/28 08:09:32;;;;;;;4.68;2.58;;;;;;;15.01;76.61;96169.53;4954183;29;20058;-75
2021/08/28 08:11:58;;;;;;;3.85;2.63;;;;;;;15.14;75.99;96176.56;4954251;29;20058;-74
2021/08/28 08:14:24;;;;;;;3.30;2.00;;;;;;;15.24;76.92;96178.75;4953357;29;20062;-74
2021/08/28 08:16:51;;;;;;;3.22;2.40;;;;;;;15.72;75.20;96179.63;4954244;29;20054;-74
2021/08/28 08:19:19;;;;;;;2.47;2.00;;;;;;;17.13;74.92;96174.03;4953572;29;20513;-74
2021/08/28 08:21:45;;;;;;;3.58;1.83;;;;;;;18.28;69.11;96177.53;4953810;29;20047;-73
2021/08/28 08:24:12;;;;;;;1.95;1.33;;;;;;;19.07;66.32;96181.34;4953434;29;20058;-75
2021/08/28 08:26:38;;;;;;;1.80;1.40;;;;;;;19.27;64.35;96174.47;4954072;29;20387;-74
2021/08/28 08:29:05;;;;;;;2.65;1.35;;;;;;;19.02;62.58;96172.22;4953641;29;20055;-74
2021/08/28 08:31:31;;;;;;;2.97;1.50;;;;;;;18.70;63.32;96173.81;4952897;28;20069;-74
2021/08/28 08:33:58;;;;;;;3.28;1.20;;;;;;;18.26;63.26;96177.09;4953488;29;20051;-74
2021/08/28 08:36:26;;;;;;;2.50;1.35;;;;;;;17.76;63.98;96176.34;4953349;29;20047;-74
2021/08/28 08:38:52;;;;;;;4.68;1.88;;;;;;;17.15;66.15;96174.47;4954039;29;20047;-74
2021/08/28 08:41:19;;;;;;;3.72;2.42;;;;;;;16.40;69.50;96184.72;4953479;29;20047;-74
2021/08/28 08:43:47;;;;;;;2.38;2.00;;;;;;;15.74;70.65;96188.31;4954296;29;20557;-74
2021/08/28 08:46:14;;;;;;;3.10;2.47;;;;;;;15.31;72.62;96176.22;4953293;29;20051;-73
2021/08/28 08:48:42;;;;;;;2.40;2.10;;;;;;;15.13;74.85;96183.97;4954036;29;20074;-74
2021/08/28 08:51:09;;;;;;;4.30;2.90;;;;;;;15.02;76.34;96176.63;4953800;29;20051;-74
2021/08/28 08:53:37;;;;;;;2.70;2.20;;;;;;;14.97;78.13;96185.88;4953673;29;20062;-74
2021/08/28 08:56:05;;;;;;;2.55;2.22;;;;;;;14.95;79.13;96185.44;4953320;29;20078;-74
2021/08/28 08:58:32;;;;;;;5.63;2.15;;;;;;;15.19;79.87;96175.50;4953635;29;20126;-73
2021/08/28 09:00:58;;;;;;;5.55;2.72;;;;;;;16.00;81.50;96175.97;4953534;29;20058;-74
2021/08/28 09:03:25;;;;;;;2.63;2.03;;;;;;;16.73;78.38;96180.72;4952689;29;20414;-74
2021/08/28 09:05:51;;;;;;;6.03;3.38;;;;;;;17.37;74.50;96170.94;4953721;29;20043;-74
2021/08/28 09:08:18;;;;;;;3.72;1.60;;;;;;;17.81;69.79;96167.00;4952885;29;20495;-74
2021/08/28 09:10:45;;;;;;;1.50;1.10;;;;;;;18.80;67.54;96172.34;4953429;29;20062;-74
2021/08/28 09:13:15;;;;;;;2.67;1.45;;;;;;;18.94;64.73;96178.00;4953111;29;20047;-74
2021/08/28 09:15:44;;;;;;;1.55;1.20;;;;;;;18.92;61.74;96178.41;4953358;29;20047;-74
2021/08/28 09:18:11;;;;;;;3.22;1.10;;;;;;;18.62;63.89;96178.38;4953180;29;20058;-74
2021/08/28 09:20:37;;;;;;;1.42;0.90;;;;;;;18.27;63.06;96178.72;4953509;29;20055;-72
2021/08/28 09:23:06;;;;;;;2.33;1.20;;;;;;;17.92;65.05;96174.25;4952793;29;20054;-72
2021/08/28 09:25:33;;;;;;;2.10;1.38;;;;;;;17.68;65.88;96174.59;4953136;29;20054;-72
2021/08/28 09:28:01;;;;;;;1.80;1.25;;;;;;;17.58;67.44;96172.47;4953197;29;20043;-72
2021/08/28 09:30:30;;;;;;;1.35;1.02;;;;;;;17.43;68.03;96174.97;4952969;29;20054;-72
2021/08/28 09:32:58;;;;;;;2.53;1.20;;;;;;;17.21;66.29;96178.50;4952645;29;20054;-74
2021/08/28 09:35:27;;;;;;;2.80;1.10;;;;;;;17.34;63.60;96181.91;4952911;29;20066;-72
2021/08/28 09:37:59;;;;;;;1.15;0.88;;;;;;;17.56;64.80;96183.06;4953181;29;20051;-72
2021/08/28 09:40:28;;;;;;;0.70;0.70;;;;;;;17.87;65.55;96177.31;4952597;29;20055;-74
2021/08/28 09:43:01;;;;;;;0.98;0.75;;;;;;;18.32;61.35;96175.59;4952451;28;20051;-74
2021/08/28 09:45:28;;;;;;;2.17;0.75;;;;;;;18.86;61.66;96170.84;4952930;29;20509;-74
2021/08/28 09:47:56;;;;;;;0.90;0.68;;;;;;;19.35;63.00;96173.34;4953194;29;20055;-74
2021/08/28 09:50:27;;;;;;;1.70;0.60;;;;;;;19.63;55.54;96175.63;4952643;29;20043;-74
2021/08/28 09:52:54;;;;;;;1.75;1.00;;;;;;;19.82;57.39;96174.59;4952975;29;20053;-74
2021/08/28 09:55:21;;;;;;;1.02;0.80;;;;;;;19.67;58.25;96175.63;4952405;29;20059;-74
2021/08/28 09:57:51;;;;;;;0.77;0.60;;;;;;;19.39;58.72;96176.94;4952927;28;20054;-74
2021/08/28 10:00:19;;;;;;;1.50;0.80;;;;;;;19.03;57.60;96182.06;4952322;29;20047;-74
2021/08/28 10:02:56;;;;;;;0.73;0.63;;;;;;;18.63;60.00;96173.66;4952309;29;20521;-73
2021/08/28 10:05:25;;;;;;;0.98;0.70;;;;;;;18.33;61.65;96177.22;4952080;29;20051;-74
2021/08/28 10:07:55;;;;;;;1.30;1.00;;;;;;;18.12;62.63;96171.41;4952918;29;20047;-72
2021/08/28 10:10:21;;;;;;;1.17;0.82;;;;;;;17.89;63.15;96174.97;4952444;29;20059;-73
2021/08/28 10:12:50;;;;;;;2.67;0.88;;;;;;;17.80;63.96;96170.88;4952882;29;20410;-72
2021/08/28 10:15:17;;;;;;;1.45;0.95;;;;;;;17.82;62.48;96172.13;4952386;29;20063;-72
2021/08/28 10:17:46;;;;;;;2.15;1.48;;;;;;;17.73;63.85;96183.38;4952375;29;20051;-72
2021/08/28 10:20:13;;;;;;;2.35;1.40;;;;;;;17.61;65.25;96175.28;4951822;29;20054;-73
2021/08/28 10:22:43;;;;;;;2.60;0.90;;;;;;;17.46;65.15;96168.75;4952593;29;20058;-72
2021/08/28 10:25:12;;;;;;;0.75;0.70;;;;;;;17.42;65.12;96167.09;4952360;29;20050;-72
2021/08/28 10:27:41;;;;;;;1.92;0.75;;;;;;;17.37;65.92;96170.94;4952501;29;20039;-72
2021/08/28 10:30:10;;;;;;;1.10;0.73;;;;;;;17.31;63.49;96164.16;4952208;29;20502;-72
2021/08/28 10:32:37;;;;;;;0.90;0.85;;;;;;;17.26;62.68;96164.44;4952175;29;20533;-72
2021/08/28 10:35:06;;;;;;;0.98;0.60;;;;;;;17.26;61.17;96163.66;4952089;29;20047;-72
2021/08/28 10:37:32;;;;;;;0.95;0.90;;;;;;;17.27;62.94;96162.50;4952642;29;20044;-74
2021/08/28 10:40:00;;;;;;;0.75;0.60;;;;;;;17.26;63.50;96164.44;4952575;29;20054;-72
2021/08/28 10:42:31;;;;;;;0.70;0.60;;;;;;;17.26;63.47;96163.66;4952120;29;20635;-72
2021/08/28 10:45:00;;;;;;;0.70;0.60;;;;;;;17.15;62.19;96164.25;4952639;29;20503;-72
2021/08/28 10:47:29;;;;;;;1.02;0.82;;;;;;;17.04;62.32;96162.47;4952152;29;20051;-73
2021/08/28 10:49:57;;;;;;;1.60;0.73;;;;;;;16.97;62.70;96167.84;4952611;29;20055;-73
2021/08/28 10:52:26;;;;;;;1.67;0.60;;;;;;;16.97;61.74;96163.13;4952017;28;20050;-73
2021/08/28 10:54:57;;;;;;;0.75;0.60;;;;;;;17.02;62.59;96175.78;4955068;29;20051;-72
2021/08/28 10:57:28;;;;;;;0.75;0.40;;;;;;;17.03;61.50;96174.63;4955392;29;20051;-72
2021/08/28 11:00:02;;;;;;;1.05;0.60;;;;;;;17.06;61.01;96166.44;4955913;29;20055;-73
2021/08/28 11:02:56;;;;;;;1.58;0.55;;;;;;;17.10;60.07;96172.00;4955245;29;20509;-72
2021/08/28 11:05:24;;;;;;;0.50;0.50;;;;;;;17.26;59.87;96175.44;4954645;29;20055;-72
2021/08/28 11:07:52;;;;;;;1.05;0.65;;;;;;;17.42;60.84;96173.38;4954021;29;20048;-72
2021/08/28 11:10:21;;;;;;;1.98;0.90;;;;;;;17.41;61.59;96177.31;4954892;29;20499;-72
2021/08/28 11:13:00;;;;;;;0.95;0.60;;;;;;;17.42;61.79;96170.63;4955138;29;20055;-73
2021/08/28 11:15:51;;;;;;;1.52;0.70;;;;;;;17.45;63.41;96180.13;4954747;29;20047;-72
2021/08/28 11:18:44;;;;;;;1.80;1.05;;;;;;;17.44;64.03;96190.34;4954816;29;20047;-72
2021/08/28 11:21:11;;;;;;;1.88;0.88;;;;;;;17.14;60.52;96194.88;4955263;29;20062;-72
2021/08/28 11:23:41;;;;;;;1.42;0.70;;;;;;;16.60;62.00;96217.72;4955436;29;20140;-72
2021/08/28 11:26:08;;;;;;;2.08;0.80;;;;;;;16.17;66.06;96219.50;4954961;29;20051;-72
2021/08/28 11:28:39;;;;;;;3.08;1.10;;;;;;;15.83;66.45;96210.09;4955640;29;20055;-72
2021/08/28 11:31:06;;;;;;;0.98;0.82;;;;;;;15.53;67.61;96209.69;4954772;29;20043;-72